CSUN Campus Station - National Weather Service Data Page - PST Time




                Date      RH     Dew  Seasonal     Current   Max Air   Min Air    Wind    Wind    Wind    Gust     Bar    Rain
                Time       %   Point      Rain    Air Temp     Since     Since   Speed    Gust     Dir     Dir   Press   Total
                               Deg F    Inches       Deg F  Midnight  Midnight     MPH     MPH                      mb  Inches
------------------------------------------------------------------------------------------------------------------------------
    03/28/2015 00:00      30    31.9      8.78        63.7      92.9      57.1       1       3      86      69    1017    0.00
    03/28/2015 00:10      32    32.5      8.78        63.9      64.4      63.1       0       2      79      86    1017    0.00
    03/28/2015 00:20      33    33.1      8.78        62.9      64.4      62.5       0       1      74      66    1017    0.00
    03/28/2015 00:30      34    33.3      8.78        62.0      64.4      61.7       0       0       0     135    1017    0.00
    03/28/2015 00:40      34    32.7      8.78        62.1      64.4      61.6       0       1      34      34    1016    0.00
    03/28/2015 00:50      35    33.0      8.78        61.1      64.4      60.8       0       0       0      23    1016    0.00
    03/28/2015 01:00      35    33.1      8.78        60.6      64.4      60.4       0       0       0     255    1017    0.00
    03/28/2015 01:10      34    32.9      8.78        60.9      64.4      60.4       0       2     335     336    1017    0.00
    03/28/2015 01:20      34    32.9      8.78        61.5      64.4      60.4       0       1     336     336    1017    0.00
    03/28/2015 01:30      33    32.7      8.78        61.6      64.4      60.4       1       2     337     345    1017    0.00
    03/28/2015 01:40      33    32.5      8.78        62.0      64.4      60.4       1       2     342     343    1017    0.00
    03/28/2015 01:50      35    32.8      8.78        60.8      64.4      60.2       0       0       0     344    1017    0.00
    03/28/2015 02:00      34    32.8      8.78        60.2      64.4      59.9       1       3       4     339    1017    0.00
    03/28/2015 02:10      30    32.0      8.78        61.0      64.4      59.9       1       4      35      48    1016    0.00
    03/28/2015 02:20      35    31.4      8.78        61.9      64.4      59.9       1       6      28      47    1016    0.00
    03/28/2015 02:30      38    33.1      8.78        60.1      64.4      59.5       0       2     299     260    1016    0.00
    03/28/2015 02:40      39    33.9      8.78        59.4      64.4      59.1       0       2     292     285    1016    0.00
    03/28/2015 02:50      38    34.2      8.78        59.4      64.4      59.1       0       0       0     231    1016    0.00
    03/28/2015 03:00      39    33.9      8.78        59.5      64.4      58.8       0       0       0     340    1016    0.00
    03/28/2015 03:10      39    34.2      8.78        58.8      64.4      58.4       0       2     351     344    1016    0.00
    03/28/2015 03:20      40    34.3      8.78        59.0      64.4      58.4       0       0       0      58    1016    0.00
    03/28/2015 03:30      40    34.4      8.78        58.8      64.4      58.4       0       0       0      11    1016    0.00
    03/28/2015 03:40      40    34.2      8.78        58.7      64.4      58.4       0       0       0      25    1016    0.00
    03/28/2015 03:50      40    34.5      8.78        58.7      64.4      58.4       0       1     356       7    1016    0.00
    03/28/2015 04:00      41    34.6      8.78        58.4      64.4      57.9       0       0       0      51    1016    0.00
    03/28/2015 04:10      45    35.0      8.78        57.5      64.4      56.8       0       0       0      34    1016    0.00
    03/28/2015 04:20      46    35.8      8.78        56.1      64.4      55.6       0       1     148     145    1016    0.00
    03/28/2015 04:30      45    35.1      8.78        55.9      64.4      55.6       0       0       0     292    1016    0.00
    03/28/2015 04:40      45    34.9      8.78        55.9      64.4      55.6       0       0       0     311    1017    0.00
    03/28/2015 04:50      45    35.0      8.78        55.9      64.4      55.6       0       0       0     320    1017    0.00
    03/28/2015 05:00      47    35.3      8.78        55.9      64.4      55.4       0       0       0     349    1017    0.00
    03/28/2015 05:10      47    35.3      8.78        55.6      64.4      55.4       0       0       0     337    1017    0.00
    03/28/2015 05:20      46    35.3      8.78        55.7      64.4      55.3       0       1     342     342    1017    0.00
    03/28/2015 05:30      45    34.8      8.78        56.3      64.4      55.3       1       2     340     345    1017    0.00
    03/28/2015 05:40      45    35.0      8.78        56.1      64.4      55.3       0       1     329     334    1017    0.00
    03/28/2015 05:50      48    35.7      8.78        55.5      64.4      55.0       0       0       0     319    1017    0.00
    03/28/2015 06:00      50    36.4      8.78        55.0      64.4      54.7       0       0       0      50    1017    0.00
    03/28/2015 06:10      51    36.6      8.78        54.7      64.4      54.6       0       0       0     105    1017    0.00
    03/28/2015 06:20      54    38.1      8.78        54.7      64.4      54.3       0       1     105     105    1017    0.00
    03/28/2015 06:30      53    38.5      8.78        54.7      64.4      54.3       0       0       0     255    1017    0.00
    03/28/2015 06:40      51    38.3      8.78        55.9      64.4      54.3       0       0       0      71    1017    0.00
    03/28/2015 06:50      48    39.4      8.78        58.0      64.4      54.3       0       0       0     343    1017    0.00
    03/28/2015 07:00      40    39.1      8.78        60.9      64.4      54.3       0       1      54      60    1017    0.00
    03/28/2015 07:10      40    39.4      8.78        63.9      65.1      54.3       0       2      63      67    1017    0.00
    03/28/2015 07:20      40    40.3      8.78        65.7      66.1      54.3       0       1      69      39    1017    0.00
    03/28/2015 07:30      40    41.0      8.78        66.5      67.0      54.3       0       2     140     155    1017    0.00
    03/28/2015 07:40      40    41.1      8.78        66.4      67.0      54.3       1       2     175     173    1017    0.00
    03/28/2015 07:50      41    41.5      8.78        65.8      67.0      54.3       0       2     188     197    1017    0.00
    03/28/2015 08:00      39    42.0      8.78        67.0      67.7      54.3       0       2     279     328    1017    0.00
    03/28/2015 08:10      36    41.9      8.78        68.4      69.3      54.3       0       1     273     260    1017    0.00
    03/28/2015 08:20      35    41.2      8.78        69.6      70.2      54.3       0       1     354     316    1017    0.00
    03/28/2015 08:30      33    41.2      8.78        70.7      71.5      54.3       0       1      61      49    1017    0.00
    03/28/2015 08:40      31    40.3      8.78        71.8      72.4      54.3       0       2      21     331    1017    0.00
    03/28/2015 08:50      29    39.6      8.78        72.6      73.4      54.3       1       4      59      48    1017    0.00
    03/28/2015 09:00      29    39.4      8.78        73.2      73.8      54.3       1       4     106      85    1017    0.00
    03/28/2015 09:10      29    39.0      8.78        74.0      74.7      54.3       2       5     126     139    1017    0.00
    03/28/2015 09:20      28    39.7      8.78        74.8      75.3      54.3       2       4     149     146    1017    0.00
    03/28/2015 09:30      26    39.1      8.78        75.6      76.3      54.3       2       5     180     169    1017    0.00
    03/28/2015 09:40      26    38.7      8.78        76.8      77.4      54.3       2       4     183     166    1017    0.00
    03/28/2015 09:50      22    36.5      8.78        77.4      77.9      54.3       1       4     125     101    1017    0.00
    03/28/2015 10:00      23    36.5      8.78        78.2      79.1      54.3       2       4     120     141    1017    0.00
    03/28/2015 10:10      17    34.2      8.78        79.7      80.5      54.3       2       6     127      89    1017    0.00
    03/28/2015 10:20      20    33.5      8.78        79.5      80.5      54.3       3       7     130      81    1017    0.00
    03/28/2015 10:30      19    34.4      8.78        80.5      81.3      54.3       2       6     102      90    1017    0.00
    03/28/2015 10:40      16    32.7      8.78        81.1      82.1      54.3       2       5     142     146    1017    0.00
    03/28/2015 10:50      16    32.1      8.78        82.0      82.6      54.3       3       6     102     142    1017    0.00
    03/28/2015 11:00      16    32.5      8.78        82.5      83.3      54.3       3       7     113      95    1017    0.00
    03/28/2015 11:10      17    34.2      8.78        82.9      83.4      54.3       3       9     104      92    1017    0.00
    03/28/2015 11:20      19    37.5      8.78        83.5      84.4      54.3       3       6     141     130    1017    0.00
    03/28/2015 11:30      23    40.7      8.78        83.9      84.4      54.3       4      11     146     143    1017    0.00
    03/28/2015 11:40      22    39.6      8.78        84.0      84.5      54.3       3       8     145     110    1017    0.00
    03/28/2015 11:50      17    36.0      8.78        84.0      84.9      54.3       4       8     150     177    1017    0.00
    03/28/2015 12:00      16    35.2      8.78        85.0      85.6      54.3       4       8     150     147    1016    0.00
    03/28/2015 12:10      17    33.2      8.78        84.9      85.6      54.3       3       8     114     157    1016    0.00
    03/28/2015 12:20      15    33.6      8.78        85.4      86.0      54.3       4       9     128      97    1016    0.00
    03/28/2015 12:30      13    30.4      8.78        84.6      86.0      54.3       5      10     110      95    1016    0.00
    03/28/2015 12:40      12    28.1      8.78        85.0      86.0      54.3       4       8     122     151    1016    0.00
    03/28/2015 12:50      11    25.5      8.78        85.7      86.5      54.3       4      11     112     136    1016    0.00
    03/28/2015 13:00      10    25.9      8.78        86.2      86.7      54.3       6      12     139     158    1016    0.00
    03/28/2015 13:10      10    22.9      8.78        86.1      86.7      54.3       5      11     127     159    1016    0.00
    03/28/2015 13:20      12    24.9      8.78        86.2      86.7      54.3       5      12     125     166    1015    0.00
    03/28/2015 13:30       9    25.4      8.78        86.2      86.8      54.3       5      13     130     156    1015    0.00
    03/28/2015 13:40      10    25.5      8.78        86.6      87.0      54.3       5      11     157     166    1015    0.00
    03/28/2015 13:50      11    24.2      8.78        86.0      87.0      54.3       4      10     138     143    1015    0.00
    03/28/2015 14:00      11    24.2      8.78        86.4      87.0      54.3       6      12     137     157    1015    0.00
    03/28/2015 14:10       9    23.4      8.78        85.8      87.0      54.3       6      13     133     154    1015    0.00
    03/28/2015 14:20      10    24.1      8.78        86.4      87.0      54.3       5      11     141     145    1015    0.00
    03/28/2015 14:30      10    22.4      8.78        86.3      87.0      54.3       5      12     113     115    1015    0.00
    03/28/2015 14:40      10    23.1      8.78        85.8      87.0      54.3       6      13     129     151    1015    0.00
    03/28/2015 14:50      10    22.7      8.78        85.8      87.0      54.3       5      10     132     146    1015    0.00
    03/28/2015 15:00      11    23.1      8.78        86.0      87.0      54.3       6      14     149     164    1015    0.00
    03/28/2015 15:10       9    22.2      8.78        85.5      87.0      54.3       6      12     147     146    1015    0.00
    03/28/2015 15:20       9    21.8      8.78        85.2      87.0      54.3       6      12     146     154    1015    0.00
    03/28/2015 15:30       9    20.0      8.78        84.8      87.0      54.3       5      12     127     141    1015    0.00
    03/28/2015 15:40       9    20.7      8.78        85.3      87.0      54.3       5      10     127     143    1015    0.00
    03/28/2015 15:50       9    20.9      8.78        84.9      87.0      54.3       5      11     122     149    1015    0.00
    03/28/2015 16:00       9    20.2      8.78        84.4      87.0      54.3       5      11     128     140    1015    0.00
    03/28/2015 16:10       9    20.4      8.78        84.1      87.0      54.3       6      11     141     159    1015    0.00
    03/28/2015 16:20      10    20.7      8.78        83.7      87.0      54.3       6      10     142     145    1015    0.00
    03/28/2015 16:30      11    20.5      8.78        83.3      87.0      54.3       5      11     133     150    1015    0.00
    03/28/2015 16:40      10    21.6      8.78        83.1      87.0      54.3       6       9     156     174    1015    0.00
    03/28/2015 16:50      10    21.0      8.78        83.0      87.0      54.3       4       9     150     101    1015    0.00
    03/28/2015 17:00      10    20.9      8.78        82.6      87.0      54.3       4       8     147     151    1015    0.00
    03/28/2015 17:10      11    21.8      8.78        82.0      87.0      54.3       4       7     157     152    1015    0.00
    03/28/2015 17:20      11    22.2      8.78        81.6      87.0      54.3       4       6     153     177    1015    0.00
    03/28/2015 17:30      10    21.8      8.78        81.3      87.0      54.3       3       7     131     108    1015    0.00
    03/28/2015 17:40      11    21.3      8.78        81.0      87.0      54.3       3       6     133      89    1015    0.00
    03/28/2015 17:50      13    21.9      8.78        80.1      87.0      54.3       2       6     132     114    1015    0.00
    03/28/2015 18:00      12    22.7      8.78        79.3      87.0      54.3       1       4     133     152    1015    0.00
    03/28/2015 18:10      13    22.4      8.78        78.3      87.0      54.3       1       4     121     150    1015    0.00
    03/28/2015 18:20      13    22.1      8.78        77.1      87.0      54.3       1       3     137     135    1015    0.00
    03/28/2015 18:30      14    22.2      8.78        76.0      87.0      54.3       1       3      88      83    1015    0.00
    03/28/2015 18:40      15    23.2      8.78        75.4      87.0      54.3       1       3      91     100    1015    0.00
    03/28/2015 18:50      15    24.2      8.78        74.7      87.0      54.3       1       3      78      62    1015    0.00
    03/28/2015 19:00      17    25.0      8.78        74.0      87.0      54.3       1       2     141      93    1015    0.00
    03/28/2015 19:10      17    25.4      8.78        72.3      87.0      54.3       0       2     175     178    1015    0.00
    03/28/2015 19:20      19    26.1      8.78        71.5      87.0      54.3       0       0       0     176    1015    0.00
    03/28/2015 19:30      21    28.4      8.78        70.8      87.0      54.3       0       0       0     262    1015    0.00
    03/28/2015 19:40      22    29.6      8.78        70.2      87.0      54.3       0       0       0     162    1015    0.00
    03/28/2015 19:50      23    29.8      8.78        69.8      87.0      54.3       0       1     189     169    1015    0.00
    03/28/2015 20:00      23    30.1      8.78        69.4      87.0      54.3       0       1     206     197    1016    0.00
    03/28/2015 20:10      24    30.7      8.78        69.1      87.0      54.3       0       0       0     216    1016    0.00
    03/28/2015 20:20      25    30.9      8.78        69.0      87.0      54.3       0       0       0     235    1016    0.00
    03/28/2015 20:30      26    31.0      8.78        68.2      87.0      54.3       0       0       0     331    1016    0.00
    03/28/2015 20:40      26    31.7      8.78        67.6      87.0      54.3       0       0      18      20    1016    0.00
    03/28/2015 20:50      28    31.9      8.78        67.1      87.0      54.3       0       1      47      46    1016    0.00
    03/28/2015 21:00      26    32.0      8.78        66.4      87.0      54.3       1       3      44      33    1016    0.00
    03/28/2015 21:10      25    30.4      8.78        67.2      87.0      54.3       1       3      52      44    1016    0.00
    03/28/2015 21:20      26    30.4      8.78        67.0      87.0      54.3       1       3      43      46    1016    0.00
    03/28/2015 21:30      27    31.1      8.78        66.7      87.0      54.3       2       4      50      14    1016    0.00
    03/28/2015 21:40      27    31.7      8.78        66.6      87.0      54.3       2       4      43      51    1016    0.00
    03/28/2015 21:50      28    31.6      8.78        66.4      87.0      54.3       1       3      46      45    1016    0.00
    03/28/2015 22:00      30    32.3      8.78        65.6      87.0      54.3       0       2      37      44    1016    0.00
    03/28/2015 22:10      31    33.0      8.78        64.9      87.0      54.3       0       2      36      49    1016    0.00
    03/28/2015 22:20      31    32.9      8.78        64.3      87.0      54.3       0       2      24      62    1016    0.00
    03/28/2015 22:30      34    33.2      8.78        64.0      87.0      54.3       0       2      20      21    1016    0.00
    03/28/2015 22:40      35    33.9      8.78        62.4      87.0      54.3       0       0       0     112    1016    0.00
    03/28/2015 22:50      36    34.1      8.78        61.8      87.0      54.3       0       0       0     112    1016    0.00
    03/28/2015 23:00      37    34.5      8.78        61.3      87.0      54.3       0       0       0      17    1016    0.00
    03/28/2015 23:10      38    34.7      8.78        60.8      87.0      54.3       0       0       0     310    1016    0.00
    03/28/2015 23:20      40    35.7      8.78        60.5      87.0      54.3       0       0       0     299    1016    0.00
    03/28/2015 23:30      39    35.2      8.78        60.0      87.0      54.3       0       0       0     298    1016    0.00
    03/28/2015 23:40      41    35.2      8.78        60.0      87.0      54.3       0       0       0     318    1016    0.00
    03/28/2015 23:50      40    35.3      8.78        59.4      87.0      54.3       0       1     343     343    1016    0.00
    03/29/2015 00:00      41    35.4      8.78        59.2      87.0      54.3       0       0       0     320    1016    0.00
    03/29/2015 00:10      42    35.6      8.78        59.0      59.3      58.8       0       0       0     345    1016    0.00
    03/29/2015 00:20      43    36.2      8.78        58.9      59.3      58.7       0       0       0     344    1016    0.00
    03/29/2015 00:30      42    36.3      8.78        59.1      59.3      58.7       0       1     340     340    1016    0.00
    03/29/2015 00:40      44    36.6      8.78        59.1      59.4      58.7       0       0       0       4    1016    0.00
    03/29/2015 00:50      44    37.2      8.78        59.0      59.4      58.7       0       0       0      63    1016    0.00
    03/29/2015 01:00      46    37.2      8.78        58.3      59.4      57.9       0       0       0     348    1016    0.00
    03/29/2015 01:10      48    37.4      8.78        57.2      59.4      56.6       0       0       0      94    1016    0.00
    03/29/2015 01:20      49    37.8      8.78        56.5      59.4      56.3       0       0       0     180    1016    0.00
    03/29/2015 01:30      49    37.7      8.78        57.0      59.4      56.3       0       1     340     340    1016    0.00
    03/29/2015 01:40      49    37.9      8.78        56.8      59.4      56.3       0       0       0     302    1016    0.00
    03/29/2015 01:50      48    37.5      8.78        56.5      59.4      56.2       0       0       0     308    1016    0.00
    03/29/2015 02:00      48    37.6      8.78        56.8      59.4      56.2       0       1     350     349    1016    0.00
    03/29/2015 02:10      47    37.3      8.78        56.9      59.4      56.2       1       2     340     340    1015    0.00
    03/29/2015 02:20      46    36.8      8.78        57.2      59.4      56.2       0       1     355      -1    1015    0.00
    03/29/2015 02:30      46    37.0      8.78        57.2      59.4      56.2       0       1     346     345    1015    0.00
    03/29/2015 02:40      49    37.2      8.78        56.8      59.4      56.2       0       0       0     337    1015    0.00
    03/29/2015 02:50      50    37.5      8.78        56.0      59.4      55.5       0       0       0     343    1015    0.00
    03/29/2015 03:00      51    37.8      8.78        55.5      59.4      55.2       0       0       0       0    1015    0.00
    03/29/2015 03:10      53    38.0      8.78        55.2      59.4      54.7       0       0       0     335    1015    0.00
    03/29/2015 03:20      54    38.2      8.78        54.7      59.4      54.4       0       0       0     287    1015    0.00
    03/29/2015 03:30      55    38.4      8.78        54.7      59.4      54.1       0       1     247     248    1015    0.00
    03/29/2015 03:40      55    38.3      8.78        54.2      59.4      54.0       0       0     323     319    1015    0.00
    03/29/2015 03:50      56    38.5      8.78        54.4      59.4      54.0       0       1     288     287    1015    0.00
    03/29/2015 04:00      55    38.4      8.78        54.0      59.4      53.8       0       0       0     300    1015    0.00
    03/29/2015 04:10      54    38.2      8.78        54.2      59.4      53.8       0       0       0      57    1015    0.00
    03/29/2015 04:20      56    38.5      8.78        54.1      59.4      53.5       0       0       0      18    1016    0.00
    03/29/2015 04:30      57    38.8      8.78        53.7      59.4      53.4       0       1     340     343    1016    0.00
    03/29/2015 04:40      56    38.7      8.78        53.9      59.4      53.4       0       1     328     319    1016    0.00
    03/29/2015 04:50      56    38.7      8.78        53.9      59.4      53.4       0       0       0     351    1016    0.00
    03/29/2015 05:00      56    38.6      8.78        53.6      59.4      53.2       0       0       0      91    1016    0.00
    03/29/2015 05:10      58    38.5      8.78        53.5      59.4      53.1       0       0     327     327    1016    0.00
    03/29/2015 05:20      59    39.1      8.78        53.0      59.4      52.7       0       1     348     347    1016    0.00
    03/29/2015 05:30      58    39.0      8.78        53.1      59.4      52.7       0       1     340     347    1016    0.00
    03/29/2015 05:40      57    38.5      8.78        53.3      59.4      52.7       0       0       0       5    1016    0.00
    03/29/2015 05:50      56    38.4      8.78        53.4      59.4      52.7       0       0       0       9    1016    0.00
    03/29/2015 06:00      60    38.3      8.78        53.2      59.4      52.7       0       0       0      63    1016    0.00
    03/29/2015 06:10      59    39.6      8.78        52.5      59.4      52.1       0       1     342     342    1016    0.00
    03/29/2015 06:20      52    38.5      8.78        53.5      59.4      52.1       1       3      47      74    1016    0.00
    03/29/2015 06:30      51    37.3      8.78        55.6      59.4      52.1       1       3      60      63    1017    0.00
    03/29/2015 06:40      46    37.2      8.78        56.2      59.4      52.1       1       3      55      34    1017    0.00
    03/29/2015 06:50      43    37.1      8.78        58.4      59.6      52.1       1       3      35      52    1017    0.00
    03/29/2015 07:00      43    38.0      8.78        60.5      61.2      52.1       0       3      26      42    1017    0.00
    03/29/2015 07:10      40    37.6      8.78        60.8      61.2      52.1       2       3      37      35    1017    0.00
    03/29/2015 07:20      41    36.7      8.78        60.8      61.2      52.1       1       4      37      44    1016    0.00
    03/29/2015 07:30      39    37.2      8.78        61.7      62.6      52.1       0       1      35      54    1016    0.00
    03/29/2015 07:40      39    37.9      8.78        63.5      65.0      52.1       0       0      71      75    1016    0.00
    03/29/2015 07:50      38    38.2      8.78        64.7      65.3      52.1       0       0       0     350    1016    0.00
    03/29/2015 08:00      37    38.7      8.78        64.7      65.3      52.1       0       2     232     249    1016    0.00
    03/29/2015 08:10      39    39.4      8.78        65.3      65.6      52.1       1       2     184     181    1016    0.00
    03/29/2015 08:20      38    40.0      8.78        66.3      66.7      52.1       1       2     175     192    1016    0.00
    03/29/2015 08:30      39    40.3      8.78        66.3      66.7      52.1       2       3     211     187    1016    0.00
    03/29/2015 08:40      36    41.1      8.78        67.4      68.4      52.1       2       4     192     188    1016    0.00
    03/29/2015 08:50      37    40.5      8.78        68.5      69.0      52.1       1       3     197     202    1016    0.00
    03/29/2015 09:00      34    40.6      8.78        69.2      69.6      52.1       1       3     177     198    1016    0.00
    03/29/2015 09:10      33    40.4      8.78        70.5      71.5      52.1       1       3     187     217    1016    0.00
    03/29/2015 09:20      30    40.8      8.78        72.3      73.4      52.1       1       3     161     136    1016    0.00
    03/29/2015 09:30      30    40.2      8.78        73.4      73.8      52.1       1       3     189     170    1016    0.00
    03/29/2015 09:40      29    40.8      8.78        74.1      74.7      52.1       2       4     227     206    1016    0.00
    03/29/2015 09:50      28    40.3      8.78        75.2      75.9      52.1       1       5     222     208    1016    0.00
    03/29/2015 10:00      27    39.6      8.78        76.0      76.8      52.1       1       4     211     198    1016    0.00
    03/29/2015 10:10      23    37.1      8.78        77.0      77.5      52.1       2       5     164     204    1016    0.00
    03/29/2015 10:20      22    35.6      8.78        78.3      79.1      52.1       2       5     148     158    1016    0.00
    03/29/2015 10:30      16    34.6      8.78        78.9      79.7      52.1       3       7     146     144    1016    0.00
    03/29/2015 10:40      18    29.1      8.78        79.7      80.2      52.1       2       6     113      71    1016    0.00
    03/29/2015 10:50      17    30.3      8.78        79.9      80.3      52.1       2       5     200     194    1016    0.00
    03/29/2015 11:00      13    27.9      8.78        80.8      81.6      52.1       2       5     133     215    1016    0.00
    03/29/2015 11:10      13    26.9      8.78        81.9      83.1      52.1       1       3      95     164    1016    0.00
    03/29/2015 11:20      14    26.8      8.78        82.1      83.1      52.1       3       9     165     168    1016    0.00
    03/29/2015 11:30      15    28.7      8.78        82.6      83.1      52.1       2       6     139      69    1016    0.00
    03/29/2015 11:40      17    33.9      8.78        82.7      83.5      52.1       4       9     127     135    1016    0.00
    03/29/2015 11:50      16    33.7      8.78        83.1      83.7      52.1       3      10     152     167    1016    0.00
    03/29/2015 12:00      14    31.7      8.78        83.4      83.8      52.1       5      10     146     158    1015    0.00
    03/29/2015 12:10      17    30.0      8.78        83.4      84.0      52.1       5      11     139     153    1015    0.00
    03/29/2015 12:20      12    30.4      8.78        84.1      84.7      52.1       5      12     140     153    1015    0.00
    03/29/2015 12:30      13    26.6      8.78        84.7      85.1      52.1       3       8     119     139    1015    0.00
    03/29/2015 12:40      13    26.1      8.78        84.7      85.3      52.1       4       9     122     129    1015    0.00
    03/29/2015 12:50      12    26.3      8.78        84.3      85.3      52.1       5      12     144     164    1015    0.00
    03/29/2015 13:00      10    23.8      8.78        84.9      85.4      52.1       4       9     128     160    1015    0.00
    03/29/2015 13:10      12    24.1      8.78        84.8      85.4      52.1       4       8     113      85    1015    0.00
    03/29/2015 13:20      12    24.6      8.78        85.0      85.9      52.1       4       8     105      83    1014    0.00
    03/29/2015 13:30      10    24.1      8.78        85.8      86.2      52.1       4       7     100     135    1014    0.00
    03/29/2015 13:40      10    23.1      8.78        85.8      86.2      52.1       4       9      99     132    1014    0.00
    03/29/2015 13:50      11    21.9      8.78        85.4      86.2      52.1       4       9     113     105    1014    0.00
    03/29/2015 14:00      10    23.7      8.78        85.2      86.2      52.1       6      10     144     147    1014    0.00
    03/29/2015 14:10       9    24.2      8.78        85.6      86.2      52.1       5      10     137     169    1014    0.00
    03/29/2015 14:20      11    21.9      8.78        85.0      86.2      52.1       5       9     102      84    1014    0.00
    03/29/2015 14:30      10    22.6      8.78        84.6      86.2      52.1       5       9     102      92    1014    0.00
    03/29/2015 14:40      11    23.8      8.78        84.9      86.2      52.1       4       9     113      88    1014    0.00
    03/29/2015 14:50      11    24.8      8.78        85.2      86.2      52.1       5       9     141     154    1014    0.00
    03/29/2015 15:00       9    22.1      8.78        85.0      86.2      52.1       4       8     124     166    1013    0.00
    03/29/2015 15:10       9    20.7      8.78        85.2      86.2      52.1       4      10     129      75    1013    0.00
    03/29/2015 15:20       9    21.8      8.78        85.4      86.2      52.1       5       9     138     148    1013    0.00
    03/29/2015 15:30      11    23.1      8.78        85.1      86.2      52.1       4       9     108      84    1013    0.00
    03/29/2015 15:40      12    26.2      8.78        84.9      86.2      52.1       4       9     125     149    1013    0.00
    03/29/2015 15:50      11    24.9      8.78        84.6      86.2      52.1       4       9     111     142    1013    0.00
    03/29/2015 16:00      11    23.0      8.78        84.3      86.2      52.1       4       9     116      98    1013    0.00
    03/29/2015 16:10      12    24.9      8.78        83.5      86.2      52.1       5      10     134     159    1013    0.00
    03/29/2015 16:20      12    24.7      8.78        83.3      86.2      52.1       5       8     119     150    1013    0.00
    03/29/2015 16:30      13    25.0      8.78        82.6      86.2      52.1       5      10     110      87    1013    0.00
    03/29/2015 16:40      12    25.5      8.78        82.2      86.2      52.1       4       8     112      90    1013    0.00
    03/29/2015 16:50      12    25.7      8.78        82.1      86.2      52.1       3       8     134     146    1013    0.00
    03/29/2015 17:00      13    24.8      8.78        81.7      86.2      52.1       3       6     125     127    1013    0.00
    03/29/2015 17:10      13    25.2      8.78        81.2      86.2      52.1       4       7     145     143    1013    0.00
    03/29/2015 17:20      13    25.5      8.78        80.0      86.2      52.1       4       7     131     134    1013    0.00
    03/29/2015 17:30      14    24.8      8.78        79.8      86.2      52.1       4       6     138     134    1013    0.00
    03/29/2015 17:40      13    23.9      8.78        79.6      86.2      52.1       2       5     114      98    1013    0.00
    03/29/2015 17:50      13    23.9      8.78        79.1      86.2      52.1       3       6      98     107    1013    0.00
    03/29/2015 18:00      14    24.4      8.78        78.2      86.2      52.1       2       6     102      76    1013    0.00
    03/29/2015 18:10      15    25.4      8.78        77.0      86.2      52.1       2       5     107     111    1014    0.00
    03/29/2015 18:20      17    26.7      8.78        75.8      86.2      52.1       1       4     100      94    1014    0.00
    03/29/2015 18:30      18    28.7      8.78        74.8      86.2      52.1       1       3     120      83    1014    0.00
    03/29/2015 18:40      18    27.9      8.78        73.7      86.2      52.1       1       5      97      87    1014    0.00
    03/29/2015 18:50      21    28.4      8.78        73.6      86.2      52.1       2       5      91      90    1014    0.00
    03/29/2015 19:00      24    32.1      8.78        73.0      86.2      52.1       2       4      70      82    1014    0.00
    03/29/2015 19:10      27    35.3      8.78        72.4      86.2      52.1       3       5      65      72    1014    0.00
    03/29/2015 19:20      28    36.5      8.78        71.8      86.2      52.1       2       5      67      45    1014    0.00
    03/29/2015 19:30      29    36.4      8.78        71.4      86.2      52.1       1       4      66      41    1015    0.00
    03/29/2015 19:40      29    37.2      8.78        71.1      86.2      52.1       2       5      73      28    1015    0.00
    03/29/2015 19:50      31    37.5      8.78        70.4      86.2      52.1       1       3      92      90    1015    0.00
    03/29/2015 20:00      33    38.2      8.78        69.6      86.2      52.1       0       2      92      77    1015    0.00
    03/29/2015 20:10      35    38.9      8.78        68.7      86.2      52.1       0       3     100     109    1015    0.00
    03/29/2015 20:20      35    39.5      8.78        68.3      86.2      52.1       0       3      92      95    1015    0.00
    03/29/2015 20:30      38    39.7      8.78        67.6      86.2      52.1       0       0       0     119    1015    0.00
    03/29/2015 20:40      40    40.7      8.78        66.8      86.2      52.1       0       0       0     235    1015    0.00
    03/29/2015 20:50      41    41.6      8.78        66.2      86.2      52.1       0       1     320     307    1015    0.00
    03/29/2015 21:00      42    42.1      8.78        66.0      86.2      52.1       0       1      41      40    1015    0.00
    03/29/2015 21:10      41    42.0      8.78        65.8      86.2      52.1       0       0       0      31    1015    0.00
    03/29/2015 21:20      40    40.8      8.78        65.5      86.2      52.1       0       0       0     346    1015    0.00
    03/29/2015 21:30      41    40.6      8.78        65.4      86.2      52.1       0       0       0     335    1015    0.00
    03/29/2015 21:40      42    40.5      8.78        64.6      86.2      52.1       0       0       0      78    1015    0.00
    03/29/2015 21:50      45    41.0      8.78        64.0      86.2      52.1       0       0       0      24    1015    0.00
    03/29/2015 22:00      45    41.4      8.78        62.9      86.2      52.1       0       0       0     118    1015    0.00
    03/29/2015 22:10      46    41.5      8.78        63.0      86.2      52.1       0       1     313     316    1015    0.00
    03/29/2015 22:20      47    41.9      8.78        63.0      86.2      52.1       0       0       0     341    1015    0.00
    03/29/2015 22:30      48    41.8      8.78        62.5      86.2      52.1       0       0       0     303    1015    0.00
    03/29/2015 22:40      49    42.1      8.78        61.5      86.2      52.1       0       0       0     110    1015    0.00
    03/29/2015 22:50      44    40.5      8.78        61.3      86.2      52.1       0       2     328     328    1015    0.00
    03/29/2015 23:00      41    38.3      8.78        61.1      86.2      52.1       0       2     325     327    1015    0.00
    03/29/2015 23:10      42    37.1      8.78        60.9      86.2      52.1       0       0       0     323    1015    0.00
    03/29/2015 23:20      39    36.5      8.78        60.7      86.2      52.1       0       0       0     345    1015    0.00
    03/29/2015 23:30      42    36.3      8.78        60.8      86.2      52.1       0       0       0      18    1015    0.00
    03/29/2015 23:40      45    37.6      8.78        59.9      86.2      52.1       0       0       0      29    1015    0.00
    03/29/2015 23:50      47    38.3      8.78        59.1      86.2      52.1       0       0       0     310    1015    0.00
    03/30/2015 00:00      46    38.8      8.78        59.2      86.2      52.1       0       0       0      77    1015    0.00
    03/30/2015 00:10      48    39.0      8.78        59.6      59.8      59.3       0       0       0      74    1015    0.00
    03/30/2015 00:20      50    40.4      8.78        59.4      59.8      59.3       0       0       0     321    1015    0.00
    03/30/2015 00:30      52    41.1      8.78        59.2      59.8      59.0       0       0       0      35    1015    0.00
    03/30/2015 00:40      51    41.5      8.78        59.0      59.8      58.8       0       1      66      67    1015    0.00
    03/30/2015 00:50      50    40.7      8.78        58.8      59.8      58.5       0       0       0      44    1015    0.00
    03/30/2015 01:00      49    39.7      8.78        58.7      59.8      58.5       0       1     332     329    1015    0.00
    03/30/2015 01:10      49    39.5      8.78        58.5      59.8      58.2       0       0       0     339    1015    0.00
    03/30/2015 01:20      52    39.7      8.78        58.2      59.8      57.5       0       0       0     344    1015    0.00
    03/30/2015 01:30      53    39.9      8.78        57.1      59.8      56.9       0       0       0     342    1015    0.00
    03/30/2015 01:40      55    40.3      8.78        56.6      59.8      56.2       0       0       0     320    1015    0.00
    03/30/2015 01:50      56    40.3      8.78        56.3      59.8      56.0       0       0       0     320    1015    0.00
    03/30/2015 02:00      55    40.0      8.78        55.9      59.8      55.5       0       0       0     280    1014    0.00
    03/30/2015 02:10      56    39.7      8.78        55.6      59.8      55.5       0       0       0     280    1015    0.00
    03/30/2015 02:20      56    39.6      8.78        55.2      59.8      55.0       0       0       0     334    1015    0.00
    03/30/2015 02:30      56    39.8      8.78        55.3      59.8      55.0       0       0       0     334    1014    0.00
    03/30/2015 02:40      55    39.9      8.78        55.4      59.8      55.0       0       0       0     335    1014    0.00
    03/30/2015 02:50      56    40.0      8.78        55.6      59.8      55.0       0       0       0     343    1014    0.00
    03/30/2015 03:00      57    40.5      8.78        55.6      59.8      55.0       0       0       0     330    1014    0.00
    03/30/2015 03:10      58    40.9      8.78        55.5      59.8      55.0       0       0       0     342    1014    0.00
    03/30/2015 03:20      59    40.9      8.78        55.3      59.8      55.0       0       0       0     334    1014    0.00
    03/30/2015 03:30      60    41.1      8.78        54.8      59.8      54.5       0       0       0      86    1014    0.00
    03/30/2015 03:40      61    41.1      8.78        54.5      59.8      54.3       0       0       0     300    1014    0.00
    03/30/2015 03:50      63    41.3      8.78        53.9      59.8      53.5       0       0       0     302    1014    0.00
    03/30/2015 04:00      64    41.5      8.78        53.5      59.8      53.3       0       0       0     300    1014    0.00
    03/30/2015 04:10      63    41.6      8.78        53.7      59.8      53.3       0       0       0     304    1014    0.00
    03/30/2015 04:20      64    41.6      8.78        53.8      59.8      53.3       0       1     329     329    1014    0.00
    03/30/2015 04:30      65    41.8      8.78        53.7      59.8      53.3       0       0       0     327    1014    0.00
    03/30/2015 04:40      66    41.8      8.78        53.1      59.8      52.9       0       0       0     325    1014    0.00
    03/30/2015 04:50      66    42.0      8.78        53.0      59.8      52.8       0       0       0     333    1014    0.00
    03/30/2015 05:00      66    42.0      8.78        53.1      59.8      52.8       0       0       0     332    1014    0.00
    03/30/2015 05:10      67    42.0      8.78        53.0      59.8      52.6       0       0       0     339    1014    0.00
    03/30/2015 05:20      69    42.1      8.78        52.3      59.8      51.9       0       0       0     340    1014    0.00
    03/30/2015 05:30      70    42.4      8.78        52.0      59.8      51.8       0       0       0     114    1014    0.00
    03/30/2015 05:40      69    42.5      8.78        52.1      59.8      51.8       0       0       0     114    1015    0.00
    03/30/2015 05:50      70    42.4      8.78        51.9      59.8      51.5       0       0       0     114    1015    0.00
    03/30/2015 06:00      69    42.7      8.78        52.0      59.8      51.5       0       1     336     337    1015    0.00
    03/30/2015 06:10      68    42.6      8.78        52.7      59.8      51.5       0       0       0     334    1015    0.00
    03/30/2015 06:20      68    43.0      8.78        53.1      59.8      51.5       0       0       0     304    1015    0.00
    03/30/2015 06:30      69    43.3      8.78        53.3      59.8      51.5       0       0       0     333    1015    0.00
    03/30/2015 06:40      64    43.4      8.78        54.2      59.8      51.5       0       0       0     343    1015    0.00
    03/30/2015 06:50      56    44.1      8.78        57.4      59.8      51.5       0       0       0     340    1015    0.00
    03/30/2015 07:00      53    43.5      8.78        59.6      60.5      51.5       0       0       0      88    1015    0.00
    03/30/2015 07:10      47    42.8      8.78        61.9      63.1      51.5       0       0       0      63    1015    0.00
    03/30/2015 07:20      45    42.4      8.78        62.8      63.1      51.5       0       1     193     187    1015    0.00
    03/30/2015 07:30      44    42.2      8.78        63.0      63.6      51.5       1       2     196     200    1015    0.00
    03/30/2015 07:40      44    42.2      8.78        63.8      64.5      51.5       1       2     209     182    1015    0.00
    03/30/2015 07:50      44    43.0      8.78        64.2      64.8      51.5       1       3     212     189    1015    0.00
    03/30/2015 08:00      43    42.8      8.78        65.2      65.6      51.5       1       2     234     255    1015    0.00
    03/30/2015 08:10      41    42.6      8.78        65.8      66.6      51.5       0       2     231     200    1015    0.00
    03/30/2015 08:20      39    42.7      8.78        67.2      68.0      51.5       0       1     178     168    1015    0.00
    03/30/2015 08:30      39    42.4      8.78        68.1      68.6      51.5       0       2     181     179    1015    0.00
    03/30/2015 08:40      35    41.2      8.78        69.3      69.7      51.5       1       2     179     188    1015    0.00
    03/30/2015 08:50      33    41.2      8.78        70.4      71.5      51.5       1       3     191     198    1015    0.00
    03/30/2015 09:00      32    40.4      8.78        71.1      71.8      51.5       1       4     208     187    1016    0.00
    03/30/2015 09:10      31    40.3      8.78        72.3      73.1      51.5       1       4     175     156    1016    0.00
    03/30/2015 09:20      29    38.9      8.78        72.8      73.8      51.5       2       6     175     187    1016    0.00
    03/30/2015 09:30      29    39.9      8.78        73.0      73.8      51.5       3       5     217     252    1015    0.00
    03/30/2015 09:40      29    39.8      8.78        73.6      74.5      51.5       3       5     174     135    1016    0.00
    03/30/2015 09:50      28    40.1      8.78        74.9      75.5      51.5       2       5     165     161    1016    0.00
    03/30/2015 10:00      29    39.0      8.78        75.2      75.6      51.5       3       7     143     184    1015    0.00
    03/30/2015 10:10      26    39.0      8.78        76.1      76.6      51.5       3       5     161     172    1015    0.00
    03/30/2015 10:20      25    39.5      8.78        76.4      77.5      51.5       3       7     148     160    1015    0.00
    03/30/2015 10:30      22    38.0      8.78        77.5      78.2      51.5       2       6     140     171    1015    0.00
    03/30/2015 10:40      22    37.0      8.78        78.4      79.1      51.5       3       6     124     160    1015    0.00
    03/30/2015 10:50      22    36.7      8.78        78.6      79.3      51.5       2       7     178     150    1015    0.00
    03/30/2015 11:00      18    36.8      8.78        79.4      80.4      51.5       2       6     194     148    1015    0.00
    03/30/2015 11:10      19    34.5      8.78        80.4      80.8      51.5       3       7      75      89    1015    0.00
    03/30/2015 11:20      20    35.1      8.78        80.1      80.8      51.5       3       5     130     132    1015    0.00
    03/30/2015 11:30      18    34.3      8.78        80.5      81.6      51.5       2       5     203     238    1015    0.00
    03/30/2015 11:40      17    34.3      8.78        82.1      82.7      51.5       1       5     112     102    1015    0.00
    03/30/2015 11:50      18    34.3      8.78        82.7      83.3      51.5       1       7     248     191    1015    0.00
    03/30/2015 12:00      17    35.9      8.78        84.1      84.6      51.5       2       7     154     155    1015    0.00
    03/30/2015 12:10      17    36.0      8.78        84.4      85.4      51.5       3       5     121     162    1015    0.00
    03/30/2015 12:20      19    37.7      8.78        85.2      85.8      51.5       4       7     160     158    1014    0.00
    03/30/2015 12:30      21    37.6      8.78        84.7      85.8      51.5       4       7      78      89    1014    0.00
    03/30/2015 12:40      22    41.1      8.78        84.9      85.8      51.5       4       8     114     135    1014    0.00
    03/30/2015 12:50      21    41.2      8.78        85.1      85.8      51.5       4       8     124     144    1014    0.00
    03/30/2015 13:00      23    42.9      8.78        85.5      86.4      51.5       4       9     119     134    1014    0.00
    03/30/2015 13:10      22    43.2      8.78        85.0      86.4      51.5       4       8     110     124    1014    0.00
    03/30/2015 13:20      22    43.3      8.78        85.4      86.4      51.5       5       8     124     112    1013    0.00
    03/30/2015 13:30      21    41.6      8.78        84.8      86.4      51.5       5      10     115      95    1013    0.00
    03/30/2015 13:40      20    39.8      8.78        85.0      86.4      51.5       4      11     114     140    1013    0.00
    03/30/2015 13:50      17    39.1      8.78        85.1      86.4      51.5       4       8     129     133    1013    0.00
    03/30/2015 14:00      18    37.8      8.78        85.5      86.4      51.5       4       7     132     128    1013    0.00
    03/30/2015 14:10      17    36.9      8.78        85.9      86.4      51.5       4       9     132     137    1013    0.00
    03/30/2015 14:20      18    36.8      8.78        85.7      86.4      51.5       3       7     156      97    1013    0.00
    03/30/2015 14:30      20    35.3      8.78        85.5      86.4      51.5       3       8     217     180    1013    0.00
    03/30/2015 14:40      17    36.2      8.78        86.3      86.7      51.5       3       5     181     182    1013    0.00
    03/30/2015 14:50      16    34.6      8.78        85.7      86.7      51.5       3       6     229     208    1013    0.00
    03/30/2015 15:00      15    34.1      8.78        85.8      86.7      51.5       4       8     234     252    1013    0.00
    03/30/2015 15:10      15    33.3      8.78        85.9      86.7      51.5       2       6     246     230    1013    0.00
    03/30/2015 15:20      16    34.0      8.78        86.4      86.9      51.5       4      10     247     237    1012    0.00
    03/30/2015 15:30      16    34.7      8.78        85.1      86.9      51.5       5      10     259     257    1012    0.00
    03/30/2015 15:40      16    34.3      8.78        85.0      86.9      51.5       3       9     255     252    1012    0.00
    03/30/2015 15:50      16    33.9      8.78        85.0      86.9      51.5       4       8     263     244    1012    0.00
    03/30/2015 16:00      16    33.9      8.78        85.0      86.9      51.5       2       5     250     217    1012    0.00
    03/30/2015 16:10      16    33.9      8.78        84.9      86.9      51.5       4       9     265     254    1012    0.00
    03/30/2015 16:20      17    34.1      8.78        84.0      86.9      51.5       5      10     272     248    1012    0.00
    03/30/2015 16:30      20    35.3      8.78        82.4      86.9      51.5       5       9     279     229    1012    0.00
    03/30/2015 16:40      21    38.5      8.78        81.5      86.9      51.5       5      12     279     247    1012    0.00
    03/30/2015 16:50      21    38.4      8.78        80.8      86.9      51.5       5      10     275     255    1012    0.00
    03/30/2015 17:00      23    38.6      8.78        80.0      86.9      51.5       5      10     278     239    1012    0.00
    03/30/2015 17:10      26    40.0      8.78        79.3      86.9      51.5       5      12     263     252    1012    0.00
    03/30/2015 17:20      25    40.8      8.78        79.1      86.9      51.5       3       7     245     255    1013    0.00
    03/30/2015 17:30      26    40.4      8.78        78.9      86.9      51.5       2       7     251     255    1013    0.00
    03/30/2015 17:40      27    40.8      8.78        78.3      86.9      51.5       3       7     243     245    1012    0.00
    03/30/2015 17:50      29    41.5      8.78        77.4      86.9      51.5       3       6     245     246    1012    0.00
    03/30/2015 18:00      30    42.0      8.78        76.5      86.9      51.5       2       6     239     285    1012    0.00
    03/30/2015 18:10      30    41.7      8.78        75.5      86.9      51.5       3       7     258     253    1012    0.00
    03/30/2015 18:20      38    42.5      8.78        74.7      86.9      51.5       2       5     162     126    1013    0.00
    03/30/2015 18:30      44    48.3      8.78        72.9      86.9      51.5       2       4     135     134    1013    0.00
    03/30/2015 18:40      45    48.7      8.78        71.7      86.9      51.5       1       3     121     155    1013    0.00
    03/30/2015 18:50      47    49.3      8.78        71.0      86.9      51.5       1       3     124      93    1013    0.00
    03/30/2015 19:00      49    50.0      8.78        70.5      86.9      51.5       2       5     102      87    1013    0.00
    03/30/2015 19:10      53    50.9      8.78        69.7      86.9      51.5       1       3     118     101    1013    0.00
    03/30/2015 19:20      55    51.5      8.78        68.5      86.9      51.5       1       4     122     122    1013    0.00
    03/30/2015 19:30      54    51.3      8.78        68.0      86.9      51.5       1       3     112      67    1014    0.00
    03/30/2015 19:40      54    51.3      8.78        68.5      86.9      51.5       1       4      98      92    1014    0.00
    03/30/2015 19:50      54    51.0      8.78        68.3      86.9      51.5       2       5      77      78    1014    0.00
    03/30/2015 20:00      55    50.9      8.78        67.9      86.9      51.5       1       4      73      78    1014    0.00
    03/30/2015 20:10      56    50.9      8.78        67.3      86.9      51.5       3       5      68      69    1014    0.00
    03/30/2015 20:20      58    51.0      8.78        66.7      86.9      51.5       2       4      75      59    1014    0.00
    03/30/2015 20:30      58    51.0      8.78        66.2      86.9      51.5       2       5      75      58    1014    0.00
    03/30/2015 20:40      59    50.8      8.78        65.7      86.9      51.5       2       4      91      84    1014    0.00
    03/30/2015 20:50      60    50.8      8.78        65.3      86.9      51.5       1       3      66      55    1014    0.00
    03/30/2015 21:00      60    50.9      8.78        65.0      86.9      51.5       0       2      57      54    1014    0.00
    03/30/2015 21:10      61    50.6      8.78        64.6      86.9      51.5       0       1      71      75    1014    0.00
    03/30/2015 21:20      61    50.6      8.78        64.4      86.9      51.5       0       2      71      49    1014    0.00
    03/30/2015 21:30      61    50.4      8.78        64.1      86.9      51.5       0       2      80      84    1014    0.00
    03/30/2015 21:40      62    50.4      8.78        63.8      86.9      51.5       0       2      75      94    1014    0.00
    03/30/2015 21:50      62    50.5      8.78        63.6      86.9      51.5       0       2      83     104    1015    0.00
    03/30/2015 22:00      63    50.3      8.78        63.2      86.9      51.5       0       1      92      89    1015    0.00
    03/30/2015 22:10      65    50.5      8.78        62.8      86.9      51.5       1       3      84      70    1015    0.00
    03/30/2015 22:20      65    50.6      8.78        62.7      86.9      51.5       0       2      86      84    1015    0.00
    03/30/2015 22:30      67    50.7      8.78        62.2      86.9      51.5       0       2      75      84    1015    0.00
    03/30/2015 22:40      66    50.7      8.78        62.0      86.9      51.5       1       4      81      84    1015    0.00
    03/30/2015 22:50      67    50.7      8.78        61.8      86.9      51.5       1       3      50      84    1015    0.00
    03/30/2015 23:00      69    50.9      8.78        61.5      86.9      51.5       0       2      36      38    1015    0.00
    03/30/2015 23:10      70    51.1      8.78        61.2      86.9      51.5       1       2      64      55    1015    0.00
    03/30/2015 23:20      71    51.0      8.78        60.8      86.9      51.5       0       0      42      38    1015    0.00
    03/30/2015 23:30      73    50.8      8.78        59.8      86.9      51.5       0       0       0     160    1015    0.00
    03/30/2015 23:40      73    51.0      8.78        59.4      86.9      51.5       0       1     291     335    1015    0.00
    03/30/2015 23:50      73    50.8      8.78        59.5      86.9      51.5       0       2      45      20    1015    0.00
    03/31/2015 00:00      71    50.7      8.78        59.5      86.9      51.5       0       1      79      90    1015    0.00
    03/31/2015 00:10      74    50.4      8.78        59.1      59.5      58.7       0       0      19      19    1015    0.00
    03/31/2015 00:20      74    50.8      8.78        58.9      59.5      58.5       0       2      76      69    1015    0.00
    03/31/2015 00:30      72    50.9      8.78        59.7      59.9      58.5       0       2      82      90    1014    0.00
    03/31/2015 00:40      74    50.2      8.78        58.8      59.9      58.3       0       0       0     284    1015    0.00
    03/31/2015 00:50      74    50.1      8.78        58.1      59.9      57.7       0       0       0     298    1014    0.00
    03/31/2015 01:00      74    49.3      8.78        57.4      59.9      57.0       1       1     294     292    1014    0.00
    03/31/2015 01:10      72    48.9      8.78        57.4      59.9      57.0       0       1     313     291    1014    0.00
    03/31/2015 01:20      72    48.4      8.78        57.3      59.9      57.0       0       1     327     319    1014    0.00
    03/31/2015 01:30      74    48.4      8.78        57.2      59.9      56.8       0       0     297     297    1014    0.00
    03/31/2015 01:40      74    48.5      8.78        56.7      59.9      56.5       0       1     309     310    1014    0.00
    03/31/2015 01:50      75    48.5      8.78        56.5      59.9      56.3       0       0       0     317    1014    0.00
    03/31/2015 02:00      76    48.5      8.78        56.2      59.9      56.0       0       0       0     311    1014    0.00
    03/31/2015 02:10      77    48.6      8.78        56.0      59.9      55.8       0       0       0     354    1014    0.00
    03/31/2015 02:20      76    48.8      8.78        56.1      59.9      55.8       0       0       0     354    1014    0.00
    03/31/2015 02:30      76    48.7      8.78        56.1      59.9      55.8       0       0       0      57    1014    0.00
    03/31/2015 02:40      74    48.5      8.78        56.2      59.9      55.8       0       2      44      49    1014    0.00
    03/31/2015 02:50      72    48.0      8.78        56.6      59.9      55.8       1       2      31      22    1014    0.00
    03/31/2015 03:00      74    47.7      8.78        56.5      59.9      55.8       0       1       2     343    1014    0.00
    03/31/2015 03:10      75    47.8      8.78        55.9      59.9      55.6       0       1      42      56    1014    0.00
    03/31/2015 03:20      76    48.0      8.78        55.7      59.9      55.5       0       1      23      19    1014    0.00
    03/31/2015 03:30      75    48.2      8.78        55.8      59.9      55.5       0       0      27      23    1014    0.00
    03/31/2015 03:40      77    47.9      8.78        55.4      59.9      55.1       0       0       0      46    1014    0.00
    03/31/2015 03:50      77    48.2      8.78        55.2      59.9      55.0       0       0       0      56    1014    0.00
    03/31/2015 04:00      76    48.1      8.78        55.4      59.9      54.9       0       0     349     350    1014    0.00
    03/31/2015 04:10      77    47.3      8.78        54.5      59.9      54.1       0       0       0     352    1014    0.00
    03/31/2015 04:20      79    47.5      8.78        54.1      59.9      53.8       0       0       0     197    1014    0.00
    03/31/2015 04:30      78    47.8      8.78        54.3      59.9      53.8       0       0       0     306    1014    0.00
    03/31/2015 04:40      78    47.6      8.78        54.2      59.9      53.8       0       0       0     304    1014    0.00
    03/31/2015 04:50      78    47.4      8.78        54.0      59.9      53.8       0       0       0     259    1014    0.00
    03/31/2015 05:00      80    47.6      8.78        54.0      59.9      53.7       0       0       0     259    1014    0.00
    03/31/2015 05:10      79    47.7      8.78        53.9      59.9      53.7       0       0       0     259    1014    0.00